Flight Track Log - Related Links

Times and Time Zones

All times are in EDT time to prevent confusion due to time zone crossing. See the GJS6221 flight status page for this flight to view local times or setup timezone preferences in your user account.

Time Position Orientation Groundspeed Altitude Reporting Facility
EDT Latitude Longitude Course Direction KTS MPH feet Rate Location/Type
Sat 07:14:17 AM 45.4453 -73.7564 189° South 462 532 1,600  Level Boston Center
Sat 07:15:19 AM 45.3989 -73.8056 217° Southwest 312 359 4,200 2,678 Climbing Boston Center
Sat 07:16:18 AM 45.3339 -73.8483 205° Southwest 291 335 7,000 3,155 Climbing Boston Center
Sat 07:17:15 AM 45.2500 -73.8667 189° South 280 322 10,300 2,564 Climbing Montreal Center
Sat 07:18:15 AM 45.1667 -73.9000 196° South 310 357 12,000 2,100 Climbing Montreal Center
Sat 07:19:00 AM 44.8313 -74.1069 189° South  Level FlightAware Approximate
Sat 07:19:15 AM 45.0833 -73.9500 203° Southwest 340 391 14,500  Level Montreal Center
Sat 07:20:15 AM 44.9833 -74.0000 199° South 350 403 16,700 2,050 Climbing Montreal Center
Sat 07:21:15 AM 44.9000 -74.0500 203° Southwest 350 403 18,600 1,902 Climbing Montreal Center
Sat 07:22:18 AM 44.8139 -74.0992 202° Southwest 363 418 20,600 1,785 Climbing Boston Center
Sat 07:23:16 AM 44.7114 -74.1431 197° South 377 434 22,200 1,765 Climbing Boston Center
Sat 07:24:17 AM 44.5969 -74.1192 172° South 394 453 24,100 1,659 Climbing Boston Center
Sat 07:25:19 AM 44.4847 -74.1017 174° South 405 466 25,600 1,361 Climbing Boston Center
Sat 07:26:16 AM 44.3808 -74.0869 174° South 413 475 26,800 1,109 Climbing Boston Center
Sat 07:27:18 AM 44.2622 -74.0692 174° South 424 488 27,800 1,024 Climbing Boston Center
Sat 07:28:19 AM 44.1272 -74.0453 173° South 433 498 28,900 1,015 Climbing Boston Center
Sat 07:29:28 AM 44.0169 -74.0278 173° South 446 513 30,000 508 Climbing Boston Center
Sat 07:30:29 AM 43.8672 -73.9981 172° South 446 513 30,000  Level Boston Center
Sat 07:31:42 AM 43.7447 -73.9775 173° South 446 513 30,000  Level Boston Center
Sat 07:32:42 AM 43.5950 -73.9567 174° South 452 520 30,000  Level Boston Center
Sat 07:33:40 AM 43.4681 -73.9333 172° South 457 526 30,000 -202 Level Boston Center
Sat 07:34:41 AM 43.3414 -73.9075 172° South 465 535 29,600 -700 Descending Boston Center
Sat 07:35:40 AM 43.2122 -73.8872 173° South 465 535 28,600 -1,100 Descending Boston Center
Sat 07:36:41 AM 43.0897 -73.8672 173° South 460 529 27,400 -1,180 Descending Boston Center
Sat 07:37:42 AM 42.9567 -73.8444 173° South 449 517 26,200 -1,190 Descending Boston Center
Sat 07:38:42 AM 42.8381 -73.8219 172° South 437 503 25,000 -1,190 Descending Boston Center
Sat 07:39:43 AM 42.7217 -73.8022 173° South 431 496 23,800 -1,220 Descending Boston Center
Sat 07:40:40 AM 42.6050 -73.7800 172° South 431 496 22,600 -1,169 Descending Boston Center
Sat 07:41:41 AM 42.4969 -73.7578 171° South 417 480 21,500 -1,083 Descending Boston Center
Sat 07:42:53 AM 42.3950 -73.7361 171° South 411 473 20,200 -1,237 Descending Boston Center
Sat 07:43:52 AM 42.2639 -73.7222 176° South 406 467 18,800 -1,109 Descending Boston Center
Sat 07:44:52 AM 42.1472 -73.7308 183° South 398 458 18,000 -397 Descending Boston Center
Sat 07:45:53 AM 42.0511 -73.7403 184° South 398 458 18,000  Level Boston Center
Sat 07:46:54 AM 41.9342 -73.7517 184° South 386 444 18,000 -50 Level Boston Center
Sat 07:47:54 AM 41.8383 -73.7608 184° South 386 444 17,900 -1,140 Descending Boston Center
Sat 07:48:55 AM 41.7236 -73.7697 183° South 378 435 15,700 -2,118 Descending Boston Center
Sat 07:50:10 AM 41.5833 -73.7833 184° South 374 430 13,100 -2,133 Descending New York TRACON
Sat 07:51:10 AM 41.4833 -73.7833 180° South 349 402 10,900 -1,700 Descending New York TRACON
Sat 07:52:10 AM 41.4000 -73.8000 189° South 294 338 9,700 -900 Descending New York TRACON
Sat 07:53:10 AM 41.3333 -73.7833 169° South 289 333 9,100 -500 Descending New York TRACON
Sat 07:54:10 AM 41.2500 -73.7167 149° Southeast 309 356 8,700 -950 Descending New York TRACON
Sat 07:55:10 AM 41.1833 -73.6500 143° Southeast 306 352 7,200 -1,150 Descending New York TRACON
Sat 07:57:00 AM 41.0280 -73.6457 210° Southwest  Level FlightAware Approximate
Sat 07:58:10 AM 40.9667 -73.6167 210° Southwest 274 315 4,100  Level New York TRACON
Sat 07:59:10 AM 40.8833 -73.6500 197° South 268 308 4,100  Level New York TRACON
Sat 08:01:00 AM 40.7856 -73.8551 180° South  Level Estimated
Sat 08:08:00 AM 40.7667 -73.8667 180° South  Level FlightAware Approximate
Sat 08:09:00 AM 40.7772 -73.8726 180° South  Level Estimated
Sat 08:10:00 AM 40.7772 -73.8726 180° South  Level Estimated
Sat 08:11:00 AM 40.7772 -73.8726 180° South  Level Estimated
Sat 08:12:00 AM 40.7772 -73.8726 180° South  Level Estimated

Login

Don't have an account? Register now (free) for customized features, flight alerts, and more!